Ashley, Ohio
Current Conditions -  °F | °C
As of 1:56 AM on Saturday 01 Nov 2014 (Local Time) from KDLZ Reporting Station
Drizzle Drizzle  
Wind Chill: 24°   Ceiling: 800
Heat Index: 34°   Visibility: 7mi
Dew Point: 32°   Wind: 15mph
Humidity: 93%   Direction: 340°NNW
Pressure: 29.97"   Gusts: 24mph
Location:  40.41°N, 82.96°W
Report Text: KDLZ 010556Z AUTO 34013G21KT 7SM DZ OVC008 01/00 A2997 RMK AO2
Loading
Personal Weather Stations






























Interactive Weather Map
Tropical Storm Tracking
New forecast layout! Learn more

10-Day Weather Forecast

Advertisements
Track Severe Weather on mobile